sensor_id;sensor_type;location;lat;lon;timestamp;P1;durP1;ratioP1;P2;durP2;ratioP2
30249;SDS011;17064;47.974;13.826;2022-12-29T04:02:27;0.68;;;0.65;;
30249;SDS011;17064;47.974;13.826;2022-12-29T04:07:29;3.15;;;0.40;;
30249;SDS011;17064;47.974;13.826;2022-12-29T04:12:29;0.68;;;0.40;;
30249;SDS011;17064;47.974;13.826;2022-12-29T04:17:30;1.83;;;0.50;;
30249;SDS011;17064;47.974;13.826;2022-12-29T04:22:31;1.20;;;0.65;;
30249;SDS011;17064;47.974;13.826;2022-12-29T04:27:31;1.17;;;0.52;;
30249;SDS011;17064;47.974;13.826;2022-12-29T04:32:32;2.85;;;0.50;;
30249;SDS011;17064;47.974;13.826;2022-12-29T04:37:33;0.90;;;0.50;;
30249;SDS011;17064;47.974;13.826;2022-12-29T04:42:34;0.68;;;0.35;;
30249;SDS011;17064;47.974;13.826;2022-12-29T04:47:34;0.93;;;0.50;;
30249;SDS011;17064;47.974;13.826;2022-12-29T04:52:35;0.63;;;0.60;;
30249;SDS011;17064;47.974;13.826;2022-12-29T04:57:36;0.68;;;0.68;;
30249;SDS011;17064;47.974;13.826;2022-12-29T05:02:37;2.40;;;0.70;;
30249;SDS011;17064;47.974;13.826;2022-12-29T05:07:38;4.85;;;0.70;;
30249;SDS011;17064;47.974;13.826;2022-12-29T05:12:39;1.02;;;0.80;;
30249;SDS011;17064;47.974;13.826;2022-12-29T05:17:40;2.45;;;0.65;;
30249;SDS011;17064;47.974;13.826;2022-12-29T05:22:40;1.67;;;0.60;;
30249;SDS011;17064;47.974;13.826;2022-12-29T05:27:41;1.92;;;0.70;;
30249;SDS011;17064;47.974;13.826;2022-12-29T05:32:42;1.55;;;0.63;;
30249;SDS011;17064;47.974;13.826;2022-12-29T05:37:42;1.70;;;0.80;;
30249;SDS011;17064;47.974;13.826;2022-12-29T05:42:43;1.52;;;0.50;;
30249;SDS011;17064;47.974;13.826;2022-12-29T05:47:44;2.58;;;0.50;;
30249;SDS011;17064;47.974;13.826;2022-12-29T05:52:45;1.58;;;0.70;;
30249;SDS011;17064;47.974;13.826;2022-12-29T05:57:45;1.83;;;0.63;;
30249;SDS011;17064;47.974;13.826;2022-12-29T06:02:46;4.22;;;1.27;;
30249;SDS011;17064;47.974;13.826;2022-12-29T06:07:47;2.20;;;0.95;;
30249;SDS011;17064;47.974;13.826;2022-12-29T06:12:48;4.55;;;1.27;;
30249;SDS011;17064;47.974;13.826;2022-12-29T06:17:48;1.70;;;0.85;;
30249;SDS011;17064;47.974;13.826;2022-12-29T06:22:49;3.60;;;1.67;;
30249;SDS011;17064;47.974;13.826;2022-12-29T06:27:50;1.45;;;0.80;;
30249;SDS011;17064;47.974;13.826;2022-12-29T06:32:51;1.05;;;0.88;;
30249;SDS011;17064;47.974;13.826;2022-12-29T06:37:51;2.50;;;0.70;;
30249;SDS011;17064;47.974;13.826;2022-12-29T06:42:52;1.55;;;0.63;;
30249;SDS011;17064;47.974;13.826;2022-12-29T06:47:53;4.95;;;2.50;;
30249;SDS011;17064;47.974;13.826;2022-12-29T06:52:53;4.47;;;1.90;;
30249;SDS011;17064;47.974;13.826;2022-12-29T06:57:55;6.90;;;2.50;;
30249;SDS011;17064;47.974;13.826;2022-12-29T07:02:56;5.10;;;1.90;;
30249;SDS011;17064;47.974;13.826;2022-12-29T07:07:58;5.55;;;2.20;;
30249;SDS011;17064;47.974;13.826;2022-12-29T07:12:59;7.50;;;2.90;;
30249;SDS011;17064;47.974;13.826;2022-12-29T07:17:59;8.52;;;2.30;;
30249;SDS011;17064;47.974;13.826;2022-12-29T07:23:00;3.83;;;0.98;;
30249;SDS011;17064;47.974;13.826;2022-12-29T07:28:02;2.42;;;0.77;;
30249;SDS011;17064;47.974;13.826;2022-12-29T07:33:03;2.22;;;0.80;;
30249;SDS011;17064;47.974;13.826;2022-12-29T07:38:04;4.00;;;0.90;;
30249;SDS011;17064;47.974;13.826;2022-12-29T07:43:05;3.70;;;0.85;;
30249;SDS011;17064;47.974;13.826;2022-12-29T07:48:06;2.15;;;0.68;;
30249;SDS011;17064;47.974;13.826;2022-12-29T07:53:09;1.05;;;0.73;;
30249;SDS011;17064;47.974;13.826;2022-12-29T07:58:10;1.10;;;0.82;;
30249;SDS011;17064;47.974;13.826;2022-12-29T08:03:11;1.58;;;0.50;;
30249;SDS011;17064;47.974;13.826;2022-12-29T08:08:12;2.42;;;0.70;;
30249;SDS011;17064;47.974;13.826;2022-12-29T08:13:12;0.75;;;0.45;;
30249;SDS011;17064;47.974;13.826;2022-12-29T08:18:13;2.40;;;0.50;;
30249;SDS011;17064;47.974;13.826;2022-12-29T08:23:14;2.17;;;0.70;;
30249;SDS011;17064;47.974;13.826;2022-12-29T08:28:15;3.53;;;0.60;;
30249;SDS011;17064;47.974;13.826;2022-12-29T08:33:15;4.07;;;0.75;;
30249;SDS011;17064;47.974;13.826;2022-12-29T08:38:16;7.15;;;1.88;;
30249;SDS011;17064;47.974;13.826;2022-12-29T08:43:17;4.35;;;0.80;;
30249;SDS011;17064;47.974;13.826;2022-12-29T08:48:18;1.52;;;0.80;;
30249;SDS011;17064;47.974;13.826;2022-12-29T08:53:22;4.28;;;2.28;;
30249;SDS011;17064;47.974;13.826;2022-12-29T08:58:22;5.22;;;1.73;;
30249;SDS011;17064;47.974;13.826;2022-12-29T09:03:23;6.95;;;2.88;;
30249;SDS011;17064;47.974;13.826;2022-12-29T09:08:27;3.55;;;1.70;;
30249;SDS011;17064;47.974;13.826;2022-12-29T09:13:28;6.20;;;2.38;;
30249;SDS011;17064;47.974;13.826;2022-12-29T09:18:29;6.20;;;3.13;;
30249;SDS011;17064;47.974;13.826;2022-12-29T09:23:31;3.95;;;1.85;;
30249;SDS011;17064;47.974;13.826;2022-12-29T09:28:34;9.57;;;4.63;;
30249;SDS011;17064;47.974;13.826;2022-12-29T09:33:34;11.15;;;3.90;;
30249;SDS011;17064;47.974;13.826;2022-12-29T09:38:35;13.27;;;3.40;;
30249;SDS011;17064;47.974;13.826;2022-12-29T09:54:49;7.47;;;2.85;;
30249;SDS011;17064;47.974;13.826;2022-12-29T09:59:55;7.97;;;3.20;;
30249;SDS011;17064;47.974;13.826;2022-12-29T10:05:01;17.52;;;7.15;;
30249;SDS011;17064;47.974;13.826;2022-12-29T10:20:33;8.07;;;3.33;;
30249;SDS011;17064;47.974;13.826;2022-12-29T10:25:46;6.35;;;3.78;;
30249;SDS011;17064;47.974;13.826;2022-12-29T10:30:48;12.18;;;6.75;;
30249;SDS011;17064;47.974;13.826;2022-12-29T10:35:49;7.97;;;3.90;;
30249;SDS011;17064;47.974;13.826;2022-12-29T10:46:32;9.20;;;5.50;;
30249;SDS011;17064;47.974;13.826;2022-12-29T10:51:36;14.45;;;5.10;;
30249;SDS011;17064;47.974;13.826;2022-12-29T10:56:43;13.35;;;5.60;;
30249;SDS011;17064;47.974;13.826;2022-12-29T11:01:55;11.50;;;5.18;;
30249;SDS011;17064;47.974;13.826;2022-12-29T11:07:04;11.48;;;4.57;;
30249;SDS011;17064;47.974;13.826;2022-12-29T11:17:50;9.68;;;4.35;;
30249;SDS011;17064;47.974;13.826;2022-12-29T11:22:52;8.48;;;4.32;;
30249;SDS011;17064;47.974;13.826;2022-12-29T11:28:00;9.68;;;3.33;;
30249;SDS011;17064;47.974;13.826;2022-12-29T11:33:04;7.03;;;2.70;;
30249;SDS011;17064;47.974;13.826;2022-12-29T11:38:04;6.00;;;2.50;;
30249;SDS011;17064;47.974;13.826;2022-12-29T11:43:05;8.73;;;2.60;;
30249;SDS011;17064;47.974;13.826;2022-12-29T11:48:07;5.70;;;3.05;;
30249;SDS011;17064;47.974;13.826;2022-12-29T11:53:23;11.95;;;4.20;;
30249;SDS011;17064;47.974;13.826;2022-12-29T11:58:34;8.60;;;5.32;;
30249;SDS011;17064;47.974;13.826;2022-12-29T12:03:38;8.90;;;4.30;;
30249;SDS011;17064;47.974;13.826;2022-12-29T12:08:49;7.70;;;3.95;;
30249;SDS011;17064;47.974;13.826;2022-12-29T12:19:00;12.07;;;4.90;;
30249;SDS011;17064;47.974;13.826;2022-12-29T12:29:35;34.83;;;6.45;;
30249;SDS011;17064;47.974;13.826;2022-12-29T12:34:51;8.55;;;4.78;;
30249;SDS011;17064;47.974;13.826;2022-12-29T12:45:27;10.75;;;5.53;;
30249;SDS011;17064;47.974;13.826;2022-12-29T12:55:42;8.43;;;4.38;;
30249;SDS011;17064;47.974;13.826;2022-12-29T13:11:46;8.68;;;5.13;;
30249;SDS011;17064;47.974;13.826;2022-12-29T13:22:14;12.05;;;5.60;;
30249;SDS011;17064;47.974;13.826;2022-12-29T13:43:09;9.15;;;4.75;;
30249;SDS011;17064;47.974;13.826;2022-12-29T13:48:14;8.75;;;4.28;;
30249;SDS011;17064;47.974;13.826;2022-12-29T13:58:54;8.02;;;4.28;;
30249;SDS011;17064;47.974;13.826;2022-12-29T14:04:22;14.93;;;5.05;;
30249;SDS011;17064;47.974;13.826;2022-12-29T14:14:36;9.35;;;5.03;;
30249;SDS011;17064;47.974;13.826;2022-12-29T14:19:39;13.40;;;5.18;;
30249;SDS011;17064;47.974;13.826;2022-12-29T14:24:44;11.30;;;4.30;;
30249;SDS011;17064;47.974;13.826;2022-12-29T14:29:47;7.10;;;3.93;;
30249;SDS011;17064;47.974;13.826;2022-12-29T14:40:01;7.95;;;4.10;;
30249;SDS011;17064;47.974;13.826;2022-12-29T14:50:56;9.90;;;4.85;;
30249;SDS011;17064;47.974;13.826;2022-12-29T14:55:45;12.48;;;5.25;;
30249;SDS011;17064;47.974;13.826;2022-12-29T15:00:49;7.65;;;4.65;;
30249;SDS011;17064;47.974;13.826;2022-12-29T15:06:07;7.25;;;3.92;;
30249;SDS011;17064;47.974;13.826;2022-12-29T15:11:13;9.73;;;4.00;;
30249;SDS011;17064;47.974;13.826;2022-12-29T15:16:32;8.98;;;4.45;;
30249;SDS011;17064;47.974;13.826;2022-12-29T15:21:38;9.75;;;4.68;;
30249;SDS011;17064;47.974;13.826;2022-12-29T15:26:42;9.98;;;4.22;;
30249;SDS011;17064;47.974;13.826;2022-12-29T15:31:51;8.23;;;4.18;;
30249;SDS011;17064;47.974;13.826;2022-12-29T15:36:52;6.57;;;4.38;;
30249;SDS011;17064;47.974;13.826;2022-12-29T15:47:35;12.07;;;5.38;;
30249;SDS011;17064;47.974;13.826;2022-12-29T15:52:36;11.60;;;5.97;;
30249;SDS011;17064;47.974;13.826;2022-12-29T15:57:41;28.30;;;12.32;;
30249;SDS011;17064;47.974;13.826;2022-12-29T16:02:43;18.73;;;7.28;;
30249;SDS011;17064;47.974;13.826;2022-12-29T16:07:57;10.07;;;5.97;;
30249;SDS011;17064;47.974;13.826;2022-12-29T16:13:10;15.13;;;7.15;;
30249;SDS011;17064;47.974;13.826;2022-12-29T16:18:34;13.40;;;7.13;;
30249;SDS011;17064;47.974;13.826;2022-12-29T16:23:36;11.45;;;6.38;;
30249;SDS011;17064;47.974;13.826;2022-12-29T16:28:40;41.45;;;14.77;;
30249;SDS011;17064;47.974;13.826;2022-12-29T16:33:46;35.92;;;15.82;;
30249;SDS011;17064;47.974;13.826;2022-12-29T16:38:48;28.88;;;13.68;;
30249;SDS011;17064;47.974;13.826;2022-12-29T16:43:49;26.20;;;12.40;;
30249;SDS011;17064;47.974;13.826;2022-12-29T16:49:14;18.30;;;10.55;;
30249;SDS011;17064;47.974;13.826;2022-12-29T16:54:21;19.05;;;9.80;;
30249;SDS011;17064;47.974;13.826;2022-12-29T17:04:33;24.63;;;9.73;;
30249;SDS011;17064;47.974;13.826;2022-12-29T17:09:33;23.70;;;11.13;;
30249;SDS011;17064;47.974;13.826;2022-12-29T17:19:52;31.52;;;13.05;;
30249;SDS011;17064;47.974;13.826;2022-12-29T17:24:59;23.38;;;11.48;;
30249;SDS011;17064;47.974;13.826;2022-12-29T17:30:21;28.20;;;13.82;;
30249;SDS011;17064;47.974;13.826;2022-12-29T17:35:23;32.58;;;11.30;;
30249;SDS011;17064;47.974;13.826;2022-12-29T17:40:28;17.13;;;9.68;;
30249;SDS011;17064;47.974;13.826;2022-12-29T17:45:31;14.25;;;7.22;;
30249;SDS011;17064;47.974;13.826;2022-12-29T17:50:32;16.83;;;8.43;;
30249;SDS011;17064;47.974;13.826;2022-12-29T17:55:33;14.35;;;7.13;;
30249;SDS011;17064;47.974;13.826;2022-12-29T18:00:34;14.32;;;7.22;;
30249;SDS011;17064;47.974;13.826;2022-12-29T18:05:34;14.93;;;7.68;;
30249;SDS011;17064;47.974;13.826;2022-12-29T18:10:35;12.65;;;6.80;;
30249;SDS011;17064;47.974;13.826;2022-12-29T18:15:36;15.93;;;6.57;;
30249;SDS011;17064;47.974;13.826;2022-12-29T18:20:37;19.77;;;7.00;;
30249;SDS011;17064;47.974;13.826;2022-12-29T18:25:39;13.27;;;7.28;;
30249;SDS011;17064;47.974;13.826;2022-12-29T18:30:45;15.50;;;7.50;;
30249;SDS011;17064;47.974;13.826;2022-12-29T18:40:53;16.23;;;7.50;;
30249;SDS011;17064;47.974;13.826;2022-12-29T18:45:53;10.15;;;4.43;;
30249;SDS011;17064;47.974;13.826;2022-12-29T18:50:54;10.73;;;4.32;;
30249;SDS011;17064;47.974;13.826;2022-12-29T18:55:56;10.38;;;4.40;;
30249;SDS011;17064;47.974;13.826;2022-12-29T19:00:57;7.57;;;3.97;;
30249;SDS011;17064;47.974;13.826;2022-12-29T19:05:58;8.32;;;3.47;;
30249;SDS011;17064;47.974;13.826;2022-12-29T19:10:59;6.72;;;3.42;;
30249;SDS011;17064;47.974;13.826;2022-12-29T19:16:00;6.85;;;3.47;;
30249;SDS011;17064;47.974;13.826;2022-12-29T19:21:01;7.93;;;2.92;;
30249;SDS011;17064;47.974;13.826;2022-12-29T19:26:02;10.15;;;3.40;;
30249;SDS011;17064;47.974;13.826;2022-12-29T19:31:03;12.02;;;3.95;;
30249;SDS011;17064;47.974;13.826;2022-12-29T19:36:04;8.18;;;4.15;;
30249;SDS011;17064;47.974;13.826;2022-12-29T19:41:05;7.72;;;4.53;;
30249;SDS011;17064;47.974;13.826;2022-12-29T19:46:09;7.43;;;2.97;;
30249;SDS011;17064;47.974;13.826;2022-12-29T19:51:14;6.47;;;2.80;;
30249;SDS011;17064;47.974;13.826;2022-12-29T19:56:16;4.97;;;2.30;;
30249;SDS011;17064;47.974;13.826;2022-12-29T20:01:18;8.15;;;2.80;;
30249;SDS011;17064;47.974;13.826;2022-12-29T20:06:20;4.55;;;1.98;;
30249;SDS011;17064;47.974;13.826;2022-12-29T20:11:22;4.97;;;2.63;;
30249;SDS011;17064;47.974;13.826;2022-12-29T20:16:22;7.47;;;3.38;;
30249;SDS011;17064;47.974;13.826;2022-12-29T20:21:24;5.60;;;3.22;;
30249;SDS011;17064;47.974;13.826;2022-12-29T20:26:27;5.25;;;2.17;;
30249;SDS011;17064;47.974;13.826;2022-12-29T20:31:30;4.70;;;1.83;;
30249;SDS011;17064;47.974;13.826;2022-12-29T20:36:33;7.78;;;2.05;;
30249;SDS011;17064;47.974;13.826;2022-12-29T20:41:37;4.57;;;2.08;;
30249;SDS011;17064;47.974;13.826;2022-12-29T20:46:38;3.55;;;1.80;;
30249;SDS011;17064;47.974;13.826;2022-12-29T20:51:39;4.15;;;1.95;;
30249;SDS011;17064;47.974;13.826;2022-12-29T20:56:42;3.70;;;1.80;;
30249;SDS011;17064;47.974;13.826;2022-12-29T21:01:43;4.47;;;1.77;;
30249;SDS011;17064;47.974;13.826;2022-12-29T21:06:43;4.75;;;1.95;;
30249;SDS011;17064;47.974;13.826;2022-12-29T21:11:45;3.55;;;1.52;;
30249;SDS011;17064;47.974;13.826;2022-12-29T21:16:46;7.78;;;2.10;;
30249;SDS011;17064;47.974;13.826;2022-12-29T21:21:47;6.10;;;1.67;;
30249;SDS011;17064;47.974;13.826;2022-12-29T21:26:48;3.55;;;1.80;;
30249;SDS011;17064;47.974;13.826;2022-12-29T21:31:49;5.13;;;1.63;;
30249;SDS011;17064;47.974;13.826;2022-12-29T21:36:49;4.72;;;1.60;;
30249;SDS011;17064;47.974;13.826;2022-12-29T21:41:50;2.97;;;1.77;;
30249;SDS011;17064;47.974;13.826;2022-12-29T21:46:51;4.97;;;1.65;;
30249;SDS011;17064;47.974;13.826;2022-12-29T21:51:52;2.92;;;1.60;;
30249;SDS011;17064;47.974;13.826;2022-12-29T21:56:52;5.30;;;1.92;;
30249;SDS011;17064;47.974;13.826;2022-12-29T22:01:53;5.78;;;1.73;;
30249;SDS011;17064;47.974;13.826;2022-12-29T22:07:13;3.70;;;1.55;;
30249;SDS011;17064;47.974;13.826;2022-12-29T22:12:32;3.47;;;1.23;;
30249;SDS011;17064;47.974;13.826;2022-12-29T22:17:52;2.13;;;1.20;;
30249;SDS011;17064;47.974;13.826;2022-12-29T22:22:53;2.42;;;1.38;;
30249;SDS011;17064;47.974;13.826;2022-12-29T22:27:54;7.93;;;3.05;;
30249;SDS011;17064;47.974;13.826;2022-12-29T22:32:56;4.70;;;1.70;;
30249;SDS011;17064;47.974;13.826;2022-12-29T22:37:57;4.20;;;1.55;;
30249;SDS011;17064;47.974;13.826;2022-12-29T22:42:58;2.38;;;1.23;;
30249;SDS011;17064;47.974;13.826;2022-12-29T22:47:59;3.10;;;1.45;;
30249;SDS011;17064;47.974;13.826;2022-12-29T22:53:00;2.72;;;1.80;;
30249;SDS011;17064;47.974;13.826;2022-12-29T22:58:00;6.13;;;1.67;;
30249;SDS011;17064;47.974;13.826;2022-12-29T23:03:02;3.33;;;1.58;;
30249;SDS011;17064;47.974;13.826;2022-12-29T23:08:02;3.90;;;1.52;;
30249;SDS011;17064;47.974;13.826;2022-12-29T23:13:03;1.95;;;1.23;;
30249;SDS011;17064;47.974;13.826;2022-12-29T23:18:04;4.43;;;1.30;;
30249;SDS011;17064;47.974;13.826;2022-12-29T23:23:05;3.78;;;1.80;;
30249;SDS011;17064;47.974;13.826;2022-12-29T23:28:07;3.70;;;1.95;;
30249;SDS011;17064;47.974;13.826;2022-12-29T23:33:08;3.00;;;2.00;;
30249;SDS011;17064;47.974;13.826;2022-12-29T23:38:08;5.30;;;2.03;;
30249;SDS011;17064;47.974;13.826;2022-12-29T23:43:09;5.80;;;2.50;;
30249;SDS011;17064;47.974;13.826;2022-12-29T23:48:10;4.63;;;2.00;;
30249;SDS011;17064;47.974;13.826;2022-12-29T23:53:10;3.53;;;2.05;;
30249;SDS011;17064;47.974;13.826;2022-12-29T23:58:11;5.35;;;2.13;;
